sensor_id;sensor_type;location;lat;lon;timestamp;P1;durP1;ratioP1;P2;durP2;ratioP2
43184;SDS011;28803;52.308;19.096;2023-05-07T00:02:02;6.47;;;4.07;;
43184;SDS011;28803;52.308;19.096;2023-05-07T00:04:30;6.20;;;2.92;;
43184;SDS011;28803;52.308;19.096;2023-05-07T00:07:03;8.32;;;2.80;;
43184;SDS011;28803;52.308;19.096;2023-05-07T00:09:30;5.60;;;2.80;;
43184;SDS011;28803;52.308;19.096;2023-05-07T00:11:58;6.00;;;3.35;;
43184;SDS011;28803;52.308;19.096;2023-05-07T00:14:25;4.65;;;3.17;;
43184;SDS011;28803;52.308;19.096;2023-05-07T00:16:52;5.72;;;3.17;;
43184;SDS011;28803;52.308;19.096;2023-05-07T00:19:19;6.28;;;3.47;;
43184;SDS011;28803;52.308;19.096;2023-05-07T00:21:47;5.93;;;3.00;;
43184;SDS011;28803;52.308;19.096;2023-05-07T00:24:14;8.13;;;3.30;;
43184;SDS011;28803;52.308;19.096;2023-05-07T00:26:41;4.65;;;2.92;;
43184;SDS011;28803;52.308;19.096;2023-05-07T00:29:08;6.72;;;3.00;;
43184;SDS011;28803;52.308;19.096;2023-05-07T00:31:35;5.95;;;3.13;;
43184;SDS011;28803;52.308;19.096;2023-05-07T00:34:02;5.57;;;3.08;;
43184;SDS011;28803;52.308;19.096;2023-05-07T00:36:30;7.68;;;3.30;;
43184;SDS011;28803;52.308;19.096;2023-05-07T00:38:58;6.65;;;3.40;;
43184;SDS011;28803;52.308;19.096;2023-05-07T00:41:28;8.25;;;4.10;;
43184;SDS011;28803;52.308;19.096;2023-05-07T00:43:56;7.65;;;3.47;;
43184;SDS011;28803;52.308;19.096;2023-05-07T00:46:24;6.45;;;3.80;;
43184;SDS011;28803;52.308;19.096;2023-05-07T00:48:52;6.63;;;3.97;;
43184;SDS011;28803;52.308;19.096;2023-05-07T00:51:21;5.22;;;3.05;;
43184;SDS011;28803;52.308;19.096;2023-05-07T00:53:48;7.32;;;3.55;;
43184;SDS011;28803;52.308;19.096;2023-05-07T00:56:16;6.40;;;3.47;;
43184;SDS011;28803;52.308;19.096;2023-05-07T00:58:43;8.30;;;3.42;;
43184;SDS011;28803;52.308;19.096;2023-05-07T01:01:10;6.45;;;4.00;;
43184;SDS011;28803;52.308;19.096;2023-05-07T01:03:38;9.55;;;4.82;;
43184;SDS011;28803;52.308;19.096;2023-05-07T01:06:05;6.18;;;3.55;;
43184;SDS011;28803;52.308;19.096;2023-05-07T01:08:34;6.13;;;3.78;;
43184;SDS011;28803;52.308;19.096;2023-05-07T01:11:03;6.72;;;4.18;;
43184;SDS011;28803;52.308;19.096;2023-05-07T01:13:30;6.57;;;3.42;;
43184;SDS011;28803;52.308;19.096;2023-05-07T01:15:58;6.38;;;3.95;;
43184;SDS011;28803;52.308;19.096;2023-05-07T01:18:25;7.65;;;4.20;;
43184;SDS011;28803;52.308;19.096;2023-05-07T01:20:53;7.47;;;4.30;;
43184;SDS011;28803;52.308;19.096;2023-05-07T01:23:24;9.30;;;4.57;;
43184;SDS011;28803;52.308;19.096;2023-05-07T01:25:54;7.90;;;4.93;;
43184;SDS011;28803;52.308;19.096;2023-05-07T01:28:21;10.82;;;5.10;;
43184;SDS011;28803;52.308;19.096;2023-05-07T01:30:50;5.90;;;3.95;;
43184;SDS011;28803;52.308;19.096;2023-05-07T01:33:20;13.43;;;5.13;;
43184;SDS011;28803;52.308;19.096;2023-05-07T01:35:50;9.75;;;4.40;;
43184;SDS011;28803;52.308;19.096;2023-05-07T01:38:20;9.35;;;4.63;;
43184;SDS011;28803;52.308;19.096;2023-05-07T01:40:48;8.20;;;4.63;;
43184;SDS011;28803;52.308;19.096;2023-05-07T01:43:16;10.73;;;4.15;;
43184;SDS011;28803;52.308;19.096;2023-05-07T01:45:44;8.52;;;4.75;;
43184;SDS011;28803;52.308;19.096;2023-05-07T01:48:12;9.02;;;4.82;;
43184;SDS011;28803;52.308;19.096;2023-05-07T01:50:41;8.38;;;4.38;;
43184;SDS011;28803;52.308;19.096;2023-05-07T01:53:09;10.15;;;4.82;;
43184;SDS011;28803;52.308;19.096;2023-05-07T01:55:36;7.28;;;4.47;;
43184;SDS011;28803;52.308;19.096;2023-05-07T01:58:03;9.43;;;4.72;;
43184;SDS011;28803;52.308;19.096;2023-05-07T02:00:31;9.85;;;4.70;;
43184;SDS011;28803;52.308;19.096;2023-05-07T02:02:58;10.65;;;4.28;;
43184;SDS011;28803;52.308;19.096;2023-05-07T02:05:26;6.15;;;3.95;;
43184;SDS011;28803;52.308;19.096;2023-05-07T02:07:53;9.75;;;4.03;;
43184;SDS011;28803;52.308;19.096;2023-05-07T02:10:20;7.93;;;4.40;;
43184;SDS011;28803;52.308;19.096;2023-05-07T02:12:47;9.13;;;3.72;;
43184;SDS011;28803;52.308;19.096;2023-05-07T02:15:15;9.13;;;4.43;;
43184;SDS011;28803;52.308;19.096;2023-05-07T02:17:58;7.93;;;4.03;;
43184;SDS011;28803;52.308;19.096;2023-05-07T02:20:38;6.22;;;3.83;;
43184;SDS011;28803;52.308;19.096;2023-05-07T02:23:05;7.35;;;3.75;;
43184;SDS011;28803;52.308;19.096;2023-05-07T02:25:32;8.32;;;3.50;;
43184;SDS011;28803;52.308;19.096;2023-05-07T02:27:59;7.13;;;4.03;;
43184;SDS011;28803;52.308;19.096;2023-05-07T02:30:27;7.03;;;4.13;;
43184;SDS011;28803;52.308;19.096;2023-05-07T02:32:54;7.35;;;3.78;;
43184;SDS011;28803;52.308;19.096;2023-05-07T02:35:23;6.13;;;3.47;;
43184;SDS011;28803;52.308;19.096;2023-05-07T02:37:53;6.47;;;3.17;;
43184;SDS011;28803;52.308;19.096;2023-05-07T02:40:20;5.93;;;3.42;;
43184;SDS011;28803;52.308;19.096;2023-05-07T02:42:48;6.72;;;3.80;;
43184;SDS011;28803;52.308;19.096;2023-05-07T02:45:15;5.78;;;3.00;;
43184;SDS011;28803;52.308;19.096;2023-05-07T02:47:42;6.40;;;3.33;;
43184;SDS011;28803;52.308;19.096;2023-05-07T02:50:10;5.25;;;3.20;;
43184;SDS011;28803;52.308;19.096;2023-05-07T02:52:37;5.57;;;3.08;;
43184;SDS011;28803;52.308;19.096;2023-05-07T02:55:05;5.30;;;2.58;;
43184;SDS011;28803;52.308;19.096;2023-05-07T02:57:32;6.72;;;2.75;;
43184;SDS011;28803;52.308;19.096;2023-05-07T02:59:59;5.10;;;2.90;;
43184;SDS011;28803;52.308;19.096;2023-05-07T03:02:37;4.72;;;2.53;;
43184;SDS011;28803;52.308;19.096;2023-05-07T03:05:05;5.35;;;2.63;;
43184;SDS011;28803;52.308;19.096;2023-05-07T03:07:32;6.47;;;2.63;;
43184;SDS011;28803;52.308;19.096;2023-05-07T03:10:00;5.25;;;2.05;;
43184;SDS011;28803;52.308;19.096;2023-05-07T03:12:27;4.55;;;2.42;;
43184;SDS011;28803;52.308;19.096;2023-05-07T03:14:55;3.80;;;2.03;;
43184;SDS011;28803;52.308;19.096;2023-05-07T03:17:22;4.50;;;2.25;;
43184;SDS011;28803;52.308;19.096;2023-05-07T03:19:49;5.28;;;1.90;;
43184;SDS011;28803;52.308;19.096;2023-05-07T03:22:16;3.00;;;1.95;;
43184;SDS011;28803;52.308;19.096;2023-05-07T03:24:43;3.00;;;1.83;;
43184;SDS011;28803;52.308;19.096;2023-05-07T03:27:10;3.03;;;1.50;;
43184;SDS011;28803;52.308;19.096;2023-05-07T03:29:38;3.22;;;1.80;;
43184;SDS011;28803;52.308;19.096;2023-05-07T03:32:05;2.85;;;1.70;;
43184;SDS011;28803;52.308;19.096;2023-05-07T03:34:33;2.08;;;1.25;;
43184;SDS011;28803;52.308;19.096;2023-05-07T03:37:00;2.25;;;1.60;;
43184;SDS011;28803;52.308;19.096;2023-05-07T03:39:27;3.40;;;1.83;;
43184;SDS011;28803;52.308;19.096;2023-05-07T03:41:54;2.97;;;1.90;;
43184;SDS011;28803;52.308;19.096;2023-05-07T03:44:22;3.55;;;1.85;;
43184;SDS011;28803;52.308;19.096;2023-05-07T03:46:48;4.03;;;2.00;;
43184;SDS011;28803;52.308;19.096;2023-05-07T03:49:16;3.30;;;1.52;;
43184;SDS011;28803;52.308;19.096;2023-05-07T03:51:43;4.03;;;1.50;;
43184;SDS011;28803;52.308;19.096;2023-05-07T03:54:11;2.72;;;1.50;;
43184;SDS011;28803;52.308;19.096;2023-05-07T03:56:38;2.25;;;1.45;;
43184;SDS011;28803;52.308;19.096;2023-05-07T03:59:05;2.75;;;1.52;;
43184;SDS011;28803;52.308;19.096;2023-05-07T04:01:32;3.40;;;1.60;;
43184;SDS011;28803;52.308;19.096;2023-05-07T04:03:59;2.00;;;1.45;;
43184;SDS011;28803;52.308;19.096;2023-05-07T04:06:27;4.53;;;1.58;;
43184;SDS011;28803;52.308;19.096;2023-05-07T04:08:54;2.30;;;1.23;;
43184;SDS011;28803;52.308;19.096;2023-05-07T04:11:21;3.47;;;1.50;;
43184;SDS011;28803;52.308;19.096;2023-05-07T04:13:48;2.50;;;1.58;;
43184;SDS011;28803;52.308;19.096;2023-05-07T04:16:15;2.30;;;1.40;;
43184;SDS011;28803;52.308;19.096;2023-05-07T04:18:43;1.98;;;0.93;;
43184;SDS011;28803;52.308;19.096;2023-05-07T04:21:14;3.65;;;1.40;;
43184;SDS011;28803;52.308;19.096;2023-05-07T04:23:48;5.18;;;1.45;;
43184;SDS011;28803;52.308;19.096;2023-05-07T04:26:16;2.65;;;1.65;;
43184;SDS011;28803;52.308;19.096;2023-05-07T04:28:44;4.22;;;1.77;;
43184;SDS011;28803;52.308;19.096;2023-05-07T04:31:11;3.55;;;1.75;;
43184;SDS011;28803;52.308;19.096;2023-05-07T04:33:38;4.18;;;1.90;;
43184;SDS011;28803;52.308;19.096;2023-05-07T04:36:06;3.30;;;1.58;;
43184;SDS011;28803;52.308;19.096;2023-05-07T04:38:33;3.20;;;1.80;;
43184;SDS011;28803;52.308;19.096;2023-05-07T04:41:04;3.45;;;1.48;;
43184;SDS011;28803;52.308;19.096;2023-05-07T04:43:32;5.05;;;1.70;;
43184;SDS011;28803;52.308;19.096;2023-05-07T04:45:59;2.35;;;1.42;;
43184;SDS011;28803;52.308;19.096;2023-05-07T04:48:27;4.38;;;1.30;;
43184;SDS011;28803;52.308;19.096;2023-05-07T04:50:55;3.33;;;1.75;;
43184;SDS011;28803;52.308;19.096;2023-05-07T04:53:22;6.15;;;1.58;;
43184;SDS011;28803;52.308;19.096;2023-05-07T04:55:54;3.83;;;1.63;;
43184;SDS011;28803;52.308;19.096;2023-05-07T04:58:23;1.85;;;1.15;;
43184;SDS011;28803;52.308;19.096;2023-05-07T05:00:50;6.50;;;1.30;;
43184;SDS011;28803;52.308;19.096;2023-05-07T05:03:18;1.92;;;0.80;;
43184;SDS011;28803;52.308;19.096;2023-05-07T05:05:45;2.53;;;1.27;;
43184;SDS011;28803;52.308;19.096;2023-05-07T05:08:12;2.20;;;1.13;;
43184;SDS011;28803;52.308;19.096;2023-05-07T05:10:39;2.20;;;1.00;;
43184;SDS011;28803;52.308;19.096;2023-05-07T05:13:08;4.70;;;1.20;;
43184;SDS011;28803;52.308;19.096;2023-05-07T05:15:35;1.35;;;0.98;;
43184;SDS011;28803;52.308;19.096;2023-05-07T05:18:03;2.88;;;1.42;;
43184;SDS011;28803;52.308;19.096;2023-05-07T05:20:30;2.17;;;1.65;;
43184;SDS011;28803;52.308;19.096;2023-05-07T05:22:57;2.55;;;1.05;;
43184;SDS011;28803;52.308;19.096;2023-05-07T05:25:24;5.05;;;1.30;;
43184;SDS011;28803;52.308;19.096;2023-05-07T05:27:52;1.58;;;0.85;;
43184;SDS011;28803;52.308;19.096;2023-05-07T05:30:19;1.85;;;0.90;;
43184;SDS011;28803;52.308;19.096;2023-05-07T05:32:48;0.80;;;0.43;;
43184;SDS011;28803;52.308;19.096;2023-05-07T05:35:16;1.85;;;0.60;;
43184;SDS011;28803;52.308;19.096;2023-05-07T05:37:43;1.83;;;1.10;;
43184;SDS011;28803;52.308;19.096;2023-05-07T05:40:10;1.67;;;1.00;;
43184;SDS011;28803;52.308;19.096;2023-05-07T05:42:38;1.92;;;0.70;;
43184;SDS011;28803;52.308;19.096;2023-05-07T05:45:06;2.28;;;1.00;;
43184;SDS011;28803;52.308;19.096;2023-05-07T05:47:34;1.42;;;1.00;;
43184;SDS011;28803;52.308;19.096;2023-05-07T05:50:01;4.53;;;1.00;;
43184;SDS011;28803;52.308;19.096;2023-05-07T05:52:29;1.40;;;0.68;;
43184;SDS011;28803;52.308;19.096;2023-05-07T05:54:56;1.65;;;0.82;;
43184;SDS011;28803;52.308;19.096;2023-05-07T05:57:24;2.58;;;1.00;;
43184;SDS011;28803;52.308;19.096;2023-05-07T05:59:54;1.80;;;0.90;;
43184;SDS011;28803;52.308;19.096;2023-05-07T06:02:21;3.40;;;0.80;;
43184;SDS011;28803;52.308;19.096;2023-05-07T06:04:49;3.08;;;0.73;;
43184;SDS011;28803;52.308;19.096;2023-05-07T06:07:16;2.20;;;0.80;;
43184;SDS011;28803;52.308;19.096;2023-05-07T06:09:43;1.98;;;0.80;;
43184;SDS011;28803;52.308;19.096;2023-05-07T06:12:11;1.92;;;1.00;;
43184;SDS011;28803;52.308;19.096;2023-05-07T06:14:38;2.97;;;0.77;;
43184;SDS011;28803;52.308;19.096;2023-05-07T06:17:06;1.30;;;0.68;;
43184;SDS011;28803;52.308;19.096;2023-05-07T06:19:33;1.17;;;0.60;;
43184;SDS011;28803;52.308;19.096;2023-05-07T06:22:01;1.10;;;0.70;;
43184;SDS011;28803;52.308;19.096;2023-05-07T06:24:29;1.40;;;0.88;;
43184;SDS011;28803;52.308;19.096;2023-05-07T06:26:56;2.40;;;1.10;;
43184;SDS011;28803;52.308;19.096;2023-05-07T06:29:25;1.30;;;0.70;;
43184;SDS011;28803;52.308;19.096;2023-05-07T06:31:53;3.78;;;0.90;;
43184;SDS011;28803;52.308;19.096;2023-05-07T06:34:20;1.35;;;0.80;;
43184;SDS011;28803;52.308;19.096;2023-05-07T06:36:47;3.30;;;1.05;;
43184;SDS011;28803;52.308;19.096;2023-05-07T06:39:15;1.63;;;1.00;;
43184;SDS011;28803;52.308;19.096;2023-05-07T06:41:42;1.75;;;0.60;;
43184;SDS011;28803;52.308;19.096;2023-05-07T06:44:09;1.58;;;0.73;;
43184;SDS011;28803;52.308;19.096;2023-05-07T06:46:36;1.20;;;0.75;;
43184;SDS011;28803;52.308;19.096;2023-05-07T06:49:04;1.85;;;0.57;;
43184;SDS011;28803;52.308;19.096;2023-05-07T06:51:31;1.10;;;0.68;;
43184;SDS011;28803;52.308;19.096;2023-05-07T06:53:59;2.75;;;0.82;;
43184;SDS011;28803;52.308;19.096;2023-05-07T06:56:26;1.23;;;0.60;;
43184;SDS011;28803;52.308;19.096;2023-05-07T06:58:53;1.10;;;0.50;;
43184;SDS011;28803;52.308;19.096;2023-05-07T07:01:20;1.45;;;0.60;;
43184;SDS011;28803;52.308;19.096;2023-05-07T07:03:48;1.50;;;0.77;;
43184;SDS011;28803;52.308;19.096;2023-05-07T07:06:15;1.70;;;0.57;;
43184;SDS011;28803;52.308;19.096;2023-05-07T07:08:42;1.50;;;0.73;;
43184;SDS011;28803;52.308;19.096;2023-05-07T07:11:10;1.48;;;0.93;;
43184;SDS011;28803;52.308;19.096;2023-05-07T07:13:37;2.78;;;0.85;;
43184;SDS011;28803;52.308;19.096;2023-05-07T07:16:05;1.75;;;1.10;;
43184;SDS011;28803;52.308;19.096;2023-05-07T07:18:32;0.75;;;0.52;;
43184;SDS011;28803;52.308;19.096;2023-05-07T07:20:59;1.48;;;0.82;;
43184;SDS011;28803;52.308;19.096;2023-05-07T07:23:26;1.98;;;0.75;;
43184;SDS011;28803;52.308;19.096;2023-05-07T07:25:53;3.15;;;0.88;;
43184;SDS011;28803;52.308;19.096;2023-05-07T07:28:21;1.17;;;0.55;;
43184;SDS011;28803;52.308;19.096;2023-05-07T07:30:49;2.72;;;1.05;;
43184;SDS011;28803;52.308;19.096;2023-05-07T07:33:16;1.67;;;0.70;;
43184;SDS011;28803;52.308;19.096;2023-05-07T07:35:44;1.42;;;0.57;;
43184;SDS011;28803;52.308;19.096;2023-05-07T07:38:11;1.52;;;0.70;;
43184;SDS011;28803;52.308;19.096;2023-05-07T07:40:38;1.05;;;0.70;;
43184;SDS011;28803;52.308;19.096;2023-05-07T07:43:06;1.40;;;0.70;;
43184;SDS011;28803;52.308;19.096;2023-05-07T07:45:34;3.13;;;0.50;;
43184;SDS011;28803;52.308;19.096;2023-05-07T07:48:01;1.77;;;0.82;;
43184;SDS011;28803;52.308;19.096;2023-05-07T07:50:29;1.08;;;0.77;;
43184;SDS011;28803;52.308;19.096;2023-05-07T07:53:10;2.05;;;0.88;;
43184;SDS011;28803;52.308;19.096;2023-05-07T07:55:40;0.75;;;0.55;;
43184;SDS011;28803;52.308;19.096;2023-05-07T07:58:07;1.90;;;0.60;;
43184;SDS011;28803;52.308;19.096;2023-05-07T08:00:36;0.85;;;0.35;;
43184;SDS011;28803;52.308;19.096;2023-05-07T08:03:03;1.15;;;0.68;;
43184;SDS011;28803;52.308;19.096;2023-05-07T08:05:32;1.05;;;0.43;;
43184;SDS011;28803;52.308;19.096;2023-05-07T08:07:59;1.20;;;0.85;;
43184;SDS011;28803;52.308;19.096;2023-05-07T08:10:26;1.35;;;0.93;;
43184;SDS011;28803;52.308;19.096;2023-05-07T08:12:53;2.17;;;0.50;;
43184;SDS011;28803;52.308;19.096;2023-05-07T08:15:21;0.77;;;0.52;;
43184;SDS011;28803;52.308;19.096;2023-05-07T08:17:48;1.23;;;0.55;;
43184;SDS011;28803;52.308;19.096;2023-05-07T08:20:16;1.23;;;0.60;;
43184;SDS011;28803;52.308;19.096;2023-05-07T08:22:43;1.33;;;0.70;;
43184;SDS011;28803;52.308;19.096;2023-05-07T08:25:10;2.63;;;0.80;;
43184;SDS011;28803;52.308;19.096;2023-05-07T08:27:37;0.90;;;0.40;;
43184;SDS011;28803;52.308;19.096;2023-05-07T08:30:05;0.73;;;0.50;;
43184;SDS011;28803;52.308;19.096;2023-05-07T08:32:32;1.10;;;0.80;;
43184;SDS011;28803;52.308;19.096;2023-05-07T08:34:59;2.72;;;0.82;;
43184;SDS011;28803;52.308;19.096;2023-05-07T08:37:27;1.35;;;0.68;;
43184;SDS011;28803;52.308;19.096;2023-05-07T08:39:54;2.25;;;0.90;;
43184;SDS011;28803;52.308;19.096;2023-05-07T08:42:23;1.58;;;0.60;;
43184;SDS011;28803;52.308;19.096;2023-05-07T08:44:51;1.77;;;0.90;;
43184;SDS011;28803;52.308;19.096;2023-05-07T08:47:22;2.97;;;0.73;;
43184;SDS011;28803;52.308;19.096;2023-05-07T08:49:53;1.85;;;0.65;;
43184;SDS011;28803;52.308;19.096;2023-05-07T08:52:21;1.20;;;0.88;;
43184;SDS011;28803;52.308;19.096;2023-05-07T08:54:49;1.25;;;0.80;;
43184;SDS011;28803;52.308;19.096;2023-05-07T08:57:16;1.08;;;0.60;;
43184;SDS011;28803;52.308;19.096;2023-05-07T08:59:44;0.80;;;0.50;;
43184;SDS011;28803;52.308;19.096;2023-05-07T09:02:11;1.17;;;0.60;;
43184;SDS011;28803;52.308;19.096;2023-05-07T09:04:38;1.42;;;0.77;;
43184;SDS011;28803;52.308;19.096;2023-05-07T09:07:06;3.25;;;0.90;;
43184;SDS011;28803;52.308;19.096;2023-05-07T09:09:34;3.58;;;0.90;;
43184;SDS011;28803;52.308;19.096;2023-05-07T09:12:01;2.08;;;0.80;;
43184;SDS011;28803;52.308;19.096;2023-05-07T09:14:30;1.92;;;0.70;;
43184;SDS011;28803;52.308;19.096;2023-05-07T09:16:58;9.30;;;3.53;;
43184;SDS011;28803;52.308;19.096;2023-05-07T09:19:26;1.75;;;0.75;;
43184;SDS011;28803;52.308;19.096;2023-05-07T09:22:03;2.08;;;0.80;;
43184;SDS011;28803;52.308;19.096;2023-05-07T09:24:33;2.08;;;0.80;;
43184;SDS011;28803;52.308;19.096;2023-05-07T09:27:06;9.07;;;2.38;;
43184;SDS011;28803;52.308;19.096;2023-05-07T09:32:06;2.50;;;1.15;;
43184;SDS011;28803;52.308;19.096;2023-05-07T09:34:34;1.98;;;1.00;;
43184;SDS011;28803;52.308;19.096;2023-05-07T09:37:02;1.02;;;0.50;;
43184;SDS011;28803;52.308;19.096;2023-05-07T09:39:41;1.17;;;0.75;;
43184;SDS011;28803;52.308;19.096;2023-05-07T09:42:10;2.22;;;1.17;;
43184;SDS011;28803;52.308;19.096;2023-05-07T09:44:38;2.90;;;1.05;;
43184;SDS011;28803;52.308;19.096;2023-05-07T09:47:06;2.17;;;0.85;;
43184;SDS011;28803;52.308;19.096;2023-05-07T09:49:35;1.80;;;0.60;;
43184;SDS011;28803;52.308;19.096;2023-05-07T09:52:04;1.05;;;0.63;;
43184;SDS011;28803;52.308;19.096;2023-05-07T09:54:33;1.30;;;0.68;;
43184;SDS011;28803;52.308;19.096;2023-05-07T09:57:01;1.65;;;0.57;;
43184;SDS011;28803;52.308;19.096;2023-05-07T09:59:31;2.40;;;0.60;;
43184;SDS011;28803;52.308;19.096;2023-05-07T10:01:59;2.05;;;0.70;;
43184;SDS011;28803;52.308;19.096;2023-05-07T10:04:31;3.80;;;0.70;;
43184;SDS011;28803;52.308;19.096;2023-05-07T10:06:58;1.60;;;0.85;;
43184;SDS011;28803;52.308;19.096;2023-05-07T10:09:26;1.88;;;0.77;;
43184;SDS011;28803;52.308;19.096;2023-05-07T10:11:53;3.40;;;1.15;;
43184;SDS011;28803;52.308;19.096;2023-05-07T10:14:21;2.30;;;0.80;;
43184;SDS011;28803;52.308;19.096;2023-05-07T10:16:49;1.63;;;0.75;;
43184;SDS011;28803;52.308;19.096;2023-05-07T10:19:17;1.58;;;0.75;;
43184;SDS011;28803;52.308;19.096;2023-05-07T10:21:51;4.97;;;0.73;;
43184;SDS011;28803;52.308;19.096;2023-05-07T10:24:28;1.05;;;0.60;;
43184;SDS011;28803;52.308;19.096;2023-05-07T10:26:59;1.15;;;0.63;;
43184;SDS011;28803;52.308;19.096;2023-05-07T10:33:01;1.88;;;0.90;;
43184;SDS011;28803;52.308;19.096;2023-05-07T10:35:38;2.05;;;0.93;;
43184;SDS011;28803;52.308;19.096;2023-05-07T10:38:07;1.45;;;0.60;;
43184;SDS011;28803;52.308;19.096;2023-05-07T10:40:36;3.92;;;0.88;;
43184;SDS011;28803;52.308;19.096;2023-05-07T10:43:04;2.28;;;0.68;;
43184;SDS011;28803;52.308;19.096;2023-05-07T10:50:44;2.25;;;0.55;;
43184;SDS011;28803;52.308;19.096;2023-05-07T10:55:46;2.13;;;0.85;;
43184;SDS011;28803;52.308;19.096;2023-05-07T11:00:58;2.88;;;0.75;;
43184;SDS011;28803;52.308;19.096;2023-05-07T11:03:27;1.65;;;0.77;;
43184;SDS011;28803;52.308;19.096;2023-05-07T11:06:08;1.98;;;0.70;;
43184;SDS011;28803;52.308;19.096;2023-05-07T11:14:45;2.35;;;0.90;;
43184;SDS011;28803;52.308;19.096;2023-05-07T11:17:12;2.65;;;0.80;;
43184;SDS011;28803;52.308;19.096;2023-05-07T11:19:53;1.58;;;0.50;;
43184;SDS011;28803;52.308;19.096;2023-05-07T11:22:39;2.85;;;0.82;;
43184;SDS011;28803;52.308;19.096;2023-05-07T11:25:07;2.33;;;0.82;;
43184;SDS011;28803;52.308;19.096;2023-05-07T11:27:35;4.05;;;0.75;;
43184;SDS011;28803;52.308;19.096;2023-05-07T11:30:02;0.93;;;0.50;;
43184;SDS011;28803;52.308;19.096;2023-05-07T11:32:31;1.45;;;0.75;;
43184;SDS011;28803;52.308;19.096;2023-05-07T11:34:59;5.70;;;1.23;;
43184;SDS011;28803;52.308;19.096;2023-05-07T11:37:28;1.23;;;0.90;;
43184;SDS011;28803;52.308;19.096;2023-05-07T11:40:03;2.10;;;0.93;;
43184;SDS011;28803;52.308;19.096;2023-05-07T11:42:33;3.92;;;0.88;;
43184;SDS011;28803;52.308;19.096;2023-05-07T11:45:02;1.70;;;1.08;;
43184;SDS011;28803;52.308;19.096;2023-05-07T11:47:30;1.63;;;0.80;;
43184;SDS011;28803;52.308;19.096;2023-05-07T11:50:01;1.45;;;0.70;;
43184;SDS011;28803;52.308;19.096;2023-05-07T11:52:35;2.50;;;0.90;;
43184;SDS011;28803;52.308;19.096;2023-05-07T11:55:02;1.42;;;0.70;;
43184;SDS011;28803;52.308;19.096;2023-05-07T11:57:32;1.30;;;0.57;;
43184;SDS011;28803;52.308;19.096;2023-05-07T12:00:00;1.13;;;0.52;;
43184;SDS011;28803;52.308;19.096;2023-05-07T12:02:32;1.55;;;0.60;;
43184;SDS011;28803;52.308;19.096;2023-05-07T12:05:01;1.02;;;0.65;;
43184;SDS011;28803;52.308;19.096;2023-05-07T12:07:29;1.30;;;0.50;;
43184;SDS011;28803;52.308;19.096;2023-05-07T12:09:58;1.48;;;0.60;;
43184;SDS011;28803;52.308;19.096;2023-05-07T12:12:25;0.98;;;0.45;;
43184;SDS011;28803;52.308;19.096;2023-05-07T12:14:53;1.52;;;0.70;;
43184;SDS011;28803;52.308;19.096;2023-05-07T12:17:21;1.30;;;0.70;;
43184;SDS011;28803;52.308;19.096;2023-05-07T12:19:48;2.33;;;1.08;;
43184;SDS011;28803;52.308;19.096;2023-05-07T12:22:17;1.75;;;0.75;;
43184;SDS011;28803;52.308;19.096;2023-05-07T12:24:46;3.25;;;1.55;;
43184;SDS011;28803;52.308;19.096;2023-05-07T12:27:15;2.50;;;0.88;;
43184;SDS011;28803;52.308;19.096;2023-05-07T12:29:44;1.20;;;0.60;;
43184;SDS011;28803;52.308;19.096;2023-05-07T12:32:18;1.98;;;0.70;;
43184;SDS011;28803;52.308;19.096;2023-05-07T12:34:50;2.90;;;1.60;;
43184;SDS011;28803;52.308;19.096;2023-05-07T12:37:22;1.15;;;0.70;;
43184;SDS011;28803;52.308;19.096;2023-05-07T12:40:07;1.17;;;0.80;;
43184;SDS011;28803;52.308;19.096;2023-05-07T12:42:36;7.30;;;0.98;;
43184;SDS011;28803;52.308;19.096;2023-05-07T12:45:08;2.10;;;1.05;;
43184;SDS011;28803;52.308;19.096;2023-05-07T12:47:43;2.65;;;0.95;;
43184;SDS011;28803;52.308;19.096;2023-05-07T12:50:14;3.03;;;0.93;;
43184;SDS011;28803;52.308;19.096;2023-05-07T12:52:42;1.70;;;0.88;;
43184;SDS011;28803;52.308;19.096;2023-05-07T12:55:12;2.05;;;1.00;;
43184;SDS011;28803;52.308;19.096;2023-05-07T12:57:43;1.95;;;0.93;;
43184;SDS011;28803;52.308;19.096;2023-05-07T13:00:38;2.03;;;0.75;;
43184;SDS011;28803;52.308;19.096;2023-05-07T13:03:06;1.52;;;0.70;;
43184;SDS011;28803;52.308;19.096;2023-05-07T13:05:34;1.73;;;0.95;;
43184;SDS011;28803;52.308;19.096;2023-05-07T13:08:01;3.00;;;1.02;;
43184;SDS011;28803;52.308;19.096;2023-05-07T13:10:28;2.33;;;0.80;;
43184;SDS011;28803;52.308;19.096;2023-05-07T13:12:56;0.98;;;0.50;;
43184;SDS011;28803;52.308;19.096;2023-05-07T13:15:23;3.75;;;0.80;;
43184;SDS011;28803;52.308;19.096;2023-05-07T13:17:51;1.98;;;1.60;;
43184;SDS011;28803;52.308;19.096;2023-05-07T13:20:18;1.83;;;0.80;;
43184;SDS011;28803;52.308;19.096;2023-05-07T13:22:46;1.45;;;0.43;;
43184;SDS011;28803;52.308;19.096;2023-05-07T13:25:13;1.58;;;0.65;;
43184;SDS011;28803;52.308;19.096;2023-05-07T13:27:41;0.98;;;0.63;;
43184;SDS011;28803;52.308;19.096;2023-05-07T13:30:08;2.28;;;0.63;;
43184;SDS011;28803;52.308;19.096;2023-05-07T13:32:35;1.67;;;0.80;;
43184;SDS011;28803;52.308;19.096;2023-05-07T13:35:03;2.08;;;0.88;;
43184;SDS011;28803;52.308;19.096;2023-05-07T13:37:31;1.20;;;0.45;;
43184;SDS011;28803;52.308;19.096;2023-05-07T13:39:58;1.63;;;0.80;;
43184;SDS011;28803;52.308;19.096;2023-05-07T13:42:26;1.40;;;0.82;;
43184;SDS011;28803;52.308;19.096;2023-05-07T13:44:53;2.10;;;0.88;;
43184;SDS011;28803;52.308;19.096;2023-05-07T13:47:20;2.95;;;1.00;;
43184;SDS011;28803;52.308;19.096;2023-05-07T13:49:50;2.63;;;0.57;;
43184;SDS011;28803;52.308;19.096;2023-05-07T13:52:17;1.63;;;0.60;;
43184;SDS011;28803;52.308;19.096;2023-05-07T13:54:45;2.08;;;0.70;;
43184;SDS011;28803;52.308;19.096;2023-05-07T13:57:13;2.15;;;1.05;;
43184;SDS011;28803;52.308;19.096;2023-05-07T13:59:40;3.67;;;0.52;;
43184;SDS011;28803;52.308;19.096;2023-05-07T14:02:08;1.10;;;0.63;;
43184;SDS011;28803;52.308;19.096;2023-05-07T14:04:37;4.38;;;1.02;;
43184;SDS011;28803;52.308;19.096;2023-05-07T14:07:04;2.72;;;0.70;;
43184;SDS011;28803;52.308;19.096;2023-05-07T14:09:32;1.27;;;0.80;;
43184;SDS011;28803;52.308;19.096;2023-05-07T14:12:00;1.50;;;0.70;;
43184;SDS011;28803;52.308;19.096;2023-05-07T14:14:27;1.60;;;0.60;;
43184;SDS011;28803;52.308;19.096;2023-05-07T14:16:55;1.85;;;0.50;;
43184;SDS011;28803;52.308;19.096;2023-05-07T14:19:23;2.13;;;0.60;;
43184;SDS011;28803;52.308;19.096;2023-05-07T14:21:51;2.03;;;0.80;;
43184;SDS011;28803;52.308;19.096;2023-05-07T14:24:18;1.80;;;0.80;;
43184;SDS011;28803;52.308;19.096;2023-05-07T14:27:00;2.75;;;0.70;;
43184;SDS011;28803;52.308;19.096;2023-05-07T14:29:27;1.58;;;0.50;;
43184;SDS011;28803;52.308;19.096;2023-05-07T14:31:55;1.33;;;0.57;;
43184;SDS011;28803;52.308;19.096;2023-05-07T14:34:22;1.15;;;0.60;;
43184;SDS011;28803;52.308;19.096;2023-05-07T14:36:51;2.33;;;1.05;;
43184;SDS011;28803;52.308;19.096;2023-05-07T14:39:19;1.70;;;0.60;;
43184;SDS011;28803;52.308;19.096;2023-05-07T14:41:46;3.05;;;0.90;;
43184;SDS011;28803;52.308;19.096;2023-05-07T14:44:13;4.35;;;0.60;;
43184;SDS011;28803;52.308;19.096;2023-05-07T14:46:41;1.00;;;0.60;;
43184;SDS011;28803;52.308;19.096;2023-05-07T14:49:09;1.92;;;0.63;;
43184;SDS011;28803;52.308;19.096;2023-05-07T14:51:44;2.03;;;0.73;;
43184;SDS011;28803;52.308;19.096;2023-05-07T14:54:13;1.35;;;0.70;;
43184;SDS011;28803;52.308;19.096;2023-05-07T14:56:42;1.92;;;0.90;;
43184;SDS011;28803;52.308;19.096;2023-05-07T14:59:12;2.47;;;1.00;;
43184;SDS011;28803;52.308;19.096;2023-05-07T15:01:40;2.90;;;0.77;;
43184;SDS011;28803;52.308;19.096;2023-05-07T15:04:11;1.10;;;0.55;;